createdAt,value
2023-07-02T00:00:33.224Z,98886.13
2023-07-02T00:03:02.737Z,98885.25
2023-07-02T00:05:31.870Z,98888.41
2023-07-02T00:08:00.315Z,98885.50
2023-07-02T00:10:28.797Z,98891.75
2023-07-02T00:12:56.819Z,98889.59
2023-07-02T00:15:24.988Z,98893.28
2023-07-02T00:17:53.903Z,98892.62
2023-07-02T00:20:22.038Z,98887.34
2023-07-02T00:22:50.601Z,98887.84
2023-07-02T00:25:19.012Z,98888.37
2023-07-02T00:27:47.076Z,98886.31
2023-07-02T00:30:15.523Z,98889.41
2023-07-02T00:32:43.993Z,98892.56
2023-07-02T00:35:13.306Z,98890.38
2023-07-02T00:37:41.316Z,98888.37
2023-07-02T00:40:10.110Z,98892.06
2023-07-02T00:42:38.366Z,98884.50
2023-07-02T00:45:07.730Z,98884.06
2023-07-02T00:47:37.060Z,98882.69
2023-07-02T00:50:06.394Z,98881.31
2023-07-02T00:52:34.431Z,98881.56
2023-07-02T00:55:03.822Z,98888.13
2023-07-02T00:57:32.053Z,98886.03
2023-07-02T01:00:04.190Z,98880.03
2023-07-02T01:02:32.938Z,98886.03
2023-07-02T01:05:02.507Z,98885.00
2023-07-02T01:07:31.001Z,98886.03
2023-07-02T01:09:59.540Z,98886.03
2023-07-02T01:12:29.319Z,98890.06
2023-07-02T01:15:01.862Z,98876.28
2023-07-02T01:17:43.262Z,98887.09
2023-07-02T01:20:13.141Z,98893.81
2023-07-02T01:22:41.961Z,98882.19
2023-07-02T01:25:10.683Z,98888.87
2023-07-02T01:27:38.901Z,98896.59
2023-07-02T01:30:09.921Z,98889.78
2023-07-02T01:32:39.070Z,98886.97
2023-07-02T01:35:08.778Z,98890.75
2023-07-02T01:37:38.678Z,98896.87
2023-07-02T01:40:09.573Z,98896.87
2023-07-02T01:42:38.790Z,98896.09
2023-07-02T01:45:07.496Z,98899.00
2023-07-02T01:47:35.644Z,98895.47
2023-07-02T01:50:06.216Z,98905.38
2023-07-02T01:52:34.876Z,98892.94
2023-07-02T01:55:04.079Z,98900.09
2023-07-02T01:57:32.964Z,98902.87
2023-07-02T02:00:01.038Z,98902.87
2023-07-02T02:02:29.872Z,98902.63
2023-07-02T02:04:58.558Z,98904.00
2023-07-02T02:07:27.203Z,98894.28
2023-07-02T02:09:55.379Z,98901.72
2023-07-02T02:12:23.758Z,98893.91
2023-07-02T02:14:52.058Z,98893.81
2023-07-02T02:17:20.868Z,98896.25
2023-07-02T02:19:48.993Z,98891.88
2023-07-02T02:22:17.503Z,98892.09
2023-07-02T02:24:45.898Z,98887.72
2023-07-02T02:27:14.082Z,98880.94
2023-07-02T02:29:42.152Z,98877.38
2023-07-02T02:32:11.082Z,98884.59
2023-07-02T02:34:40.206Z,98885.63
2023-07-02T02:37:09.085Z,98886.22
2023-07-02T02:39:38.440Z,98883.31
2023-07-02T02:42:06.674Z,98877.31
2023-07-02T02:44:35.619Z,98882.09
2023-07-02T02:47:05.984Z,98870.84
2023-07-02T02:49:34.345Z,98868.69
2023-07-02T02:52:02.520Z,98878.78
2023-07-02T02:54:30.879Z,98874.63
2023-07-02T02:56:58.960Z,98867.94
2023-07-02T02:59:27.223Z,98864.72
2023-07-02T03:01:55.776Z,98870.50
2023-07-02T03:04:26.879Z,98872.25
2023-07-02T03:06:55.045Z,98866.00
2023-07-02T03:09:23.687Z,98864.44
2023-07-02T03:11:51.798Z,98864.97
2023-07-02T03:14:19.930Z,98868.19
2023-07-02T03:16:48.478Z,98863.16
2023-07-02T03:19:17.237Z,98868.44
2023-07-02T03:21:45.922Z,98868.91
2023-07-02T03:24:14.560Z,98870.25
2023-07-02T03:26:44.166Z,98863.47
2023-07-02T03:29:12.532Z,98862.03
2023-07-02T03:31:41.015Z,98871.09
2023-07-02T03:34:10.645Z,98871.41
2023-07-02T03:36:39.102Z,98872.66
2023-07-02T03:39:10.407Z,98878.06
2023-07-02T03:41:39.069Z,98873.00
2023-07-02T03:44:07.688Z,98872.66
2023-07-02T03:46:36.237Z,98882.47
2023-07-02T03:49:04.781Z,98881.03
2023-07-02T03:51:33.204Z,98882.22
2023-07-02T03:54:01.274Z,98889.41
2023-07-02T03:56:29.337Z,98886.44
2023-07-02T03:58:57.691Z,98880.44
2023-07-02T04:01:25.837Z,98891.28
2023-07-02T04:03:55.885Z,98898.97
2023-07-02T04:06:24.243Z,98897.28
2023-07-02T04:08:52.290Z,98897.69
2023-07-02T04:11:20.820Z,98899.50
2023-07-02T04:13:49.036Z,98905.06
2023-07-02T04:16:17.217Z,98903.53
2023-07-02T04:18:45.665Z,98904.09
2023-07-02T04:21:13.787Z,98906.41
2023-07-02T04:23:41.827Z,98907.22
2023-07-02T04:26:18.872Z,98908.53
2023-07-02T04:29:00.145Z,98902.87
2023-07-02T04:31:28.783Z,98917.34
2023-07-02T04:33:58.139Z,98909.75
2023-07-02T04:36:26.243Z,98904.84
2023-07-02T04:38:54.744Z,98920.56
2023-07-02T04:41:22.768Z,98914.06
2023-07-02T04:43:51.072Z,98921.47
2023-07-02T04:46:19.611Z,98920.41
2023-07-02T04:48:47.888Z,98932.84
2023-07-02T04:51:16.454Z,98928.53
2023-07-02T04:53:44.956Z,98942.78
2023-07-02T04:56:13.183Z,98937.81
2023-07-02T04:58:41.235Z,98944.94
2023-07-02T05:01:09.903Z,98945.69
2023-07-02T05:03:39.176Z,98946.56
2023-07-02T05:06:07.236Z,98953.12
2023-07-02T05:08:37.501Z,98949.69
2023-07-02T05:11:05.744Z,98951.38
2023-07-02T05:13:33.882Z,98952.00
2023-07-02T05:16:02.321Z,98952.50
2023-07-02T05:18:30.380Z,98949.69
2023-07-02T05:20:58.384Z,98956.19
2023-07-02T05:23:26.855Z,98956.28
2023-07-02T05:25:54.924Z,98964.06
2023-07-02T05:28:23.079Z,98955.72
2023-07-02T05:30:51.715Z,98954.50
2023-07-02T05:33:21.247Z,98954.91
2023-07-02T05:35:49.619Z,98965.03
2023-07-02T05:38:19.994Z,98959.59
2023-07-02T05:40:48.208Z,98963.19
2023-07-02T05:43:16.605Z,98963.38
2023-07-02T05:45:44.932Z,98959.19
2023-07-02T05:48:13.121Z,98964.22
2023-07-02T05:50:41.266Z,98962.78
2023-07-02T05:53:10.925Z,98970.84
2023-07-02T05:55:40.324Z,98968.03
2023-07-02T05:58:08.655Z,98973.34
2023-07-02T06:00:37.245Z,98980.81
2023-07-02T06:03:05.629Z,98977.72
2023-07-02T06:05:34.778Z,98979.78
2023-07-02T06:08:03.037Z,98978.34
2023-07-02T06:10:31.512Z,98984.53
2023-07-02T06:12:59.585Z,98984.25
2023-07-02T06:15:27.917Z,98977.13
2023-07-02T06:17:56.499Z,98982.75
2023-07-02T06:20:24.632Z,98983.28
2023-07-02T06:22:52.837Z,98985.22
2023-07-02T06:25:21.218Z,98989.63
2023-07-02T06:27:49.380Z,98983.03
2023-07-02T06:30:17.538Z,98991.38
2023-07-02T06:32:46.050Z,98998.03
2023-07-02T06:35:14.173Z,98990.66
2023-07-02T06:37:42.980Z,99001.87
2023-07-02T06:40:11.813Z,99000.91
2023-07-02T06:42:41.328Z,99008.66
2023-07-02T06:45:09.857Z,99009.53
2023-07-02T06:47:38.677Z,99005.50
2023-07-02T06:50:07.067Z,99009.81
2023-07-02T06:52:35.308Z,99012.53
2023-07-02T06:55:05.543Z,99013.06
2023-07-02T06:57:33.604Z,99020.59
2023-07-02T07:00:02.047Z,99022.22
2023-07-02T07:02:30.461Z,99024.03
2023-07-02T07:04:58.747Z,99026.72
2023-07-02T07:07:27.150Z,99027.84
2023-07-02T07:09:55.535Z,99034.31
2023-07-02T07:12:23.578Z,99025.78
2023-07-02T07:14:51.893Z,99027.72
2023-07-02T07:17:20.705Z,99035.50
2023-07-02T07:19:48.815Z,99039.28
2023-07-02T07:22:17.401Z,99037.12
2023-07-02T07:24:45.708Z,99028.91
2023-07-02T07:27:13.799Z,99041.19
2023-07-02T07:29:42.004Z,99037.75
2023-07-02T07:32:10.335Z,99038.31
2023-07-02T07:34:38.392Z,99040.16
2023-07-02T07:37:06.688Z,99028.62
2023-07-02T07:39:35.066Z,99033.41
2023-07-02T07:42:03.251Z,99040.00
2023-07-02T07:44:32.162Z,99043.47
2023-07-02T07:47:00.649Z,99044.44
2023-07-02T07:49:28.639Z,99051.47
2023-07-02T07:51:56.785Z,99049.72
2023-07-02T07:54:25.943Z,99058.63
2023-07-02T07:56:53.978Z,99058.47
2023-07-02T07:59:22.884Z,99054.53
2023-07-02T08:01:51.424Z,99056.37
2023-07-02T08:04:19.773Z,99061.47
2023-07-02T08:06:47.857Z,99066.81
2023-07-02T08:09:15.969Z,99062.81
2023-07-02T08:11:44.303Z,99071.91
2023-07-02T08:14:13.590Z,99074.31
2023-07-02T08:16:41.974Z,99074.03
2023-07-02T08:19:10.447Z,99075.38
2023-07-02T08:21:38.611Z,99072.94
2023-07-02T08:24:07.466Z,99076.59
2023-07-02T08:26:35.833Z,99074.88
2023-07-02T08:29:04.277Z,99076.69
2023-07-02T08:31:32.436Z,99081.41
2023-07-02T08:34:00.751Z,99087.78
2023-07-02T08:36:28.838Z,99083.53
2023-07-02T08:38:56.923Z,99080.53
2023-07-02T08:41:25.374Z,99080.91
2023-07-02T08:43:56.972Z,99084.19
2023-07-02T08:46:25.606Z,99092.28
2023-07-02T08:48:53.917Z,99088.13
2023-07-02T08:51:22.130Z,99097.69
2023-07-02T08:53:50.653Z,99089.84
2023-07-02T08:56:18.765Z,99101.91
2023-07-02T08:58:46.963Z,99098.78
2023-07-02T09:01:15.918Z,99104.16
2023-07-02T09:03:44.179Z,99094.59
2023-07-02T09:06:14.001Z,99092.75
2023-07-02T09:08:42.830Z,99096.56
2023-07-02T09:11:19.978Z,99089.44
2023-07-02T09:13:53.508Z,99082.59
2023-07-02T09:16:33.965Z,99090.81
2023-07-02T09:19:03.561Z,99090.75
2023-07-02T09:21:46.275Z,99087.94
2023-07-02T09:24:22.666Z,99089.78
2023-07-02T09:26:52.694Z,99092.91
2023-07-02T09:29:42.310Z,99091.38
2023-07-02T09:32:11.250Z,99093.31
2023-07-02T09:34:43.686Z,99093.47
2023-07-02T09:37:11.862Z,99105.22
2023-07-02T09:39:40.699Z,99098.72
2023-07-02T09:42:10.727Z,99103.78
2023-07-02T09:44:39.456Z,99099.41
2023-07-02T09:47:09.574Z,99104.28
2023-07-02T09:49:44.808Z,99100.25
2023-07-02T09:52:14.753Z,99097.81
2023-07-02T09:54:46.270Z,99101.63
2023-07-02T09:57:14.770Z,99099.59
2023-07-02T09:59:43.381Z,99097.91
2023-07-02T10:02:13.354Z,99105.44
2023-07-02T10:04:46.988Z,99105.22
2023-07-02T10:07:30.749Z,99109.13
2023-07-02T10:09:59.486Z,99102.53
2023-07-02T10:12:29.672Z,99109.00
2023-07-02T10:14:59.427Z,99114.69
2023-07-02T10:17:32.411Z,99121.44
2023-07-02T10:20:06.946Z,99102.37
2023-07-02T10:22:44.772Z,99100.78
2023-07-02T10:25:12.876Z,99108.81
2023-07-02T10:27:43.692Z,99100.91
2023-07-02T10:30:12.004Z,99100.28
2023-07-02T10:32:41.141Z,99093.47
2023-07-02T10:35:19.253Z,99090.19
2023-07-02T10:37:48.003Z,99095.38
2023-07-02T10:40:16.282Z,99095.16
2023-07-02T10:42:48.104Z,99092.75
2023-07-02T10:45:17.595Z,99092.75
2023-07-02T10:47:46.652Z,99093.25
2023-07-02T10:50:21.606Z,99097.34
2023-07-02T10:52:51.844Z,99098.91
2023-07-02T10:55:21.431Z,99098.56
2023-07-02T10:57:52.595Z,99089.16
2023-07-02T11:00:21.075Z,99097.31
2023-07-02T11:02:49.966Z,99095.88
2023-07-02T11:05:18.658Z,99092.41
2023-07-02T11:07:46.748Z,99092.22
2023-07-02T11:10:21.315Z,99099.25
2023-07-02T11:12:49.516Z,99085.34
2023-07-02T11:15:21.340Z,99082.59
2023-07-02T11:17:49.644Z,99080.94
2023-07-02T11:20:18.277Z,99083.84
2023-07-02T11:22:47.595Z,99082.59
2023-07-02T11:25:17.903Z,99085.91
2023-07-02T11:27:46.227Z,99090.00
2023-07-02T11:30:15.055Z,99081.97
2023-07-02T11:32:50.920Z,99082.25
2023-07-02T11:35:20.249Z,99077.69
2023-07-02T11:37:50.317Z,99075.50
2023-07-02T11:40:18.971Z,99082.03
2023-07-02T11:42:47.328Z,99076.00
2023-07-02T11:45:15.473Z,99083.00
2023-07-02T11:47:43.692Z,99078.91
2023-07-02T11:50:25.569Z,99084.31
2023-07-02T11:52:54.820Z,99072.72
2023-07-02T11:55:23.680Z,99076.47
2023-07-02T11:57:51.813Z,99070.87
2023-07-02T12:00:20.125Z,99081.13
2023-07-02T12:02:49.518Z,99077.53
2023-07-02T12:05:17.660Z,99074.97
2023-07-02T12:07:45.960Z,99076.69
2023-07-02T12:10:15.631Z,99064.25
2023-07-02T12:12:43.744Z,99069.44
2023-07-02T12:15:12.023Z,99076.50
2023-07-02T12:17:40.433Z,99074.59
2023-07-02T12:20:09.002Z,99075.72
2023-07-02T12:22:37.162Z,99083.09
2023-07-02T12:25:06.577Z,99071.87
2023-07-02T12:27:34.625Z,99077.13
2023-07-02T12:30:03.838Z,99066.59
2023-07-02T12:32:32.533Z,99060.88
2023-07-02T12:35:00.654Z,99074.22
2023-07-02T12:37:28.765Z,99075.41
2023-07-02T12:39:57.266Z,99068.50
2023-07-02T12:42:25.437Z,99063.69
2023-07-02T12:44:53.736Z,99065.41
2023-07-02T12:47:22.201Z,99063.56
2023-07-02T12:49:50.314Z,99067.09
2023-07-02T12:52:18.522Z,99067.81
2023-07-02T12:54:47.131Z,99064.66
2023-07-02T12:57:15.260Z,99067.06
2023-07-02T12:59:44.140Z,99058.97
2023-07-02T13:02:12.691Z,99062.56
2023-07-02T13:04:41.096Z,99054.19
2023-07-02T13:07:12.075Z,99055.81
2023-07-02T13:09:40.787Z,99068.94
2023-07-02T13:12:09.427Z,99064.09
2023-07-02T13:14:37.811Z,99068.47
2023-07-02T13:17:06.672Z,99064.84
2023-07-02T13:19:35.192Z,99061.22
2023-07-02T13:22:04.027Z,99063.37
2023-07-02T13:24:38.886Z,99078.41
2023-07-02T13:27:13.857Z,99068.34
2023-07-02T13:29:42.290Z,99078.22
2023-07-02T13:32:10.746Z,99064.03
2023-07-02T13:34:39.151Z,99066.88
2023-07-02T13:37:08.425Z,99055.66
2023-07-02T13:39:36.696Z,99069.44
2023-07-02T13:42:05.123Z,99067.72
2023-07-02T13:44:33.635Z,99066.38
2023-07-02T13:47:01.732Z,99064.09
2023-07-02T13:49:29.798Z,99063.13
2023-07-02T13:51:58.373Z,99071.34
2023-07-02T13:54:26.690Z,99063.25
2023-07-02T13:56:54.767Z,99053.78
2023-07-02T13:59:23.818Z,99070.47
2023-07-02T14:01:52.210Z,99068.19
2023-07-02T14:04:20.652Z,99058.22
2023-07-02T14:06:48.988Z,99066.31
2023-07-02T14:09:17.101Z,99064.91
2023-07-02T14:11:45.493Z,99066.09
2023-07-02T14:14:13.587Z,99067.12
2023-07-02T14:16:42.146Z,99068.12
2023-07-02T14:19:10.738Z,99076.38
2023-07-02T14:21:39.009Z,99080.56
2023-07-02T14:24:07.190Z,99088.06
2023-07-02T14:26:35.552Z,99083.03
2023-07-02T14:29:03.900Z,99082.97
2023-07-02T14:31:31.997Z,99078.25
2023-07-02T14:34:00.527Z,99079.75
2023-07-02T14:36:28.649Z,99086.03
2023-07-02T14:38:56.755Z,99088.91
2023-07-02T14:41:25.138Z,99079.56
2023-07-02T14:43:53.156Z,99092.06
2023-07-02T14:46:23.579Z,99091.78
2023-07-02T14:48:52.058Z,99088.72
2023-07-02T14:51:20.205Z,99085.25
2023-07-02T14:53:48.252Z,99082.34
2023-07-02T14:56:16.855Z,99086.63
2023-07-02T14:58:44.990Z,99080.09
2023-07-02T15:01:13.064Z,99081.22
2023-07-02T15:03:41.811Z,99082.62
2023-07-02T15:06:15.170Z,99083.59
2023-07-02T15:08:43.658Z,99087.03
2023-07-02T15:11:13.387Z,99089.53
2023-07-02T15:13:45.028Z,99092.44
2023-07-02T15:16:14.105Z,99080.13
2023-07-02T15:18:42.306Z,99087.41
2023-07-02T15:21:10.606Z,99091.53
2023-07-02T15:23:39.024Z,99095.41
2023-07-02T15:26:07.721Z,99095.22
2023-07-02T15:28:37.342Z,99095.56
2023-07-02T15:31:09.577Z,99094.97
2023-07-02T15:33:38.199Z,99091.72
2023-07-02T15:36:10.247Z,99101.25
2023-07-02T15:38:38.466Z,99096.00
2023-07-02T15:41:16.390Z,99093.47
2023-07-02T15:43:45.484Z,99107.09
2023-07-02T15:46:16.773Z,99097.56
2023-07-02T15:48:45.691Z,99104.75
2023-07-02T15:51:14.064Z,99110.63
2023-07-02T15:53:43.538Z,99105.59
2023-07-02T15:56:12.190Z,99110.66
2023-07-02T15:58:40.596Z,99116.25
2023-07-02T16:01:15.227Z,99115.19
2023-07-02T16:03:44.367Z,99114.44
2023-07-02T16:06:14.498Z,99118.75
2023-07-02T16:08:44.170Z,99115.53
2023-07-02T16:11:14.265Z,99108.09
2023-07-02T16:13:43.802Z,99110.47
2023-07-02T16:16:12.386Z,99109.72
2023-07-02T16:18:40.785Z,99117.22
2023-07-02T16:21:08.946Z,99111.56
2023-07-02T16:23:37.306Z,99108.09
2023-07-02T16:26:07.028Z,99123.38
2023-07-02T16:28:37.226Z,99127.38
2023-07-02T16:31:09.146Z,99127.94
2023-07-02T16:33:38.494Z,99133.50
2023-07-02T16:36:09.939Z,99139.94
2023-07-02T16:38:38.394Z,99133.19
2023-07-02T16:41:09.452Z,99133.75
2023-07-02T16:43:37.497Z,99139.66
2023-07-02T16:46:05.608Z,99136.97
2023-07-02T16:48:34.005Z,99133.25
2023-07-02T16:51:07.292Z,99146.59
2023-07-02T16:53:35.760Z,99140.72
2023-07-02T16:56:05.888Z,99143.41
2023-07-02T16:58:34.580Z,99141.50
2023-07-02T17:01:09.118Z,99143.38
2023-07-02T17:03:37.424Z,99145.25
2023-07-02T17:06:07.852Z,99145.50
2023-07-02T17:08:39.042Z,99142.56
2023-07-02T17:11:09.735Z,99147.66
2023-07-02T17:13:38.176Z,99135.66
2023-07-02T17:16:07.147Z,99151.38
2023-07-02T17:18:35.808Z,99146.84
2023-07-02T17:21:04.011Z,99147.09
2023-07-02T17:23:32.035Z,99153.22
2023-07-02T17:26:05.206Z,99158.22
2023-07-02T17:28:33.675Z,99162.53
2023-07-02T17:31:03.099Z,99156.16
2023-07-02T17:33:31.334Z,99163.53
2023-07-02T17:35:59.438Z,99169.13
2023-07-02T17:38:27.773Z,99174.41
2023-07-02T17:40:55.799Z,99170.00
2023-07-02T17:43:23.809Z,99169.78
2023-07-02T17:45:56.572Z,99171.91
2023-07-02T17:48:27.051Z,99166.31
2023-07-02T17:51:00.387Z,99176.53
2023-07-02T17:53:32.388Z,99177.16
2023-07-02T17:56:01.056Z,99184.56
2023-07-02T17:58:29.410Z,99172.13
2023-07-02T18:00:57.662Z,99180.03
2023-07-02T18:03:26.402Z,99187.63
2023-07-02T18:05:55.040Z,99179.97
2023-07-02T18:08:23.474Z,99191.94
2023-07-02T18:10:52.042Z,99191.41
2023-07-02T18:13:22.462Z,99187.03
2023-07-02T18:15:52.386Z,99195.75
2023-07-02T18:18:21.908Z,99194.41
2023-07-02T18:20:50.640Z,99191.69
2023-07-02T18:23:19.773Z,99192.44
2023-07-02T18:25:53.534Z,99197.22
2023-07-02T18:28:24.804Z,99190.34
2023-07-02T18:30:54.017Z,99208.53
2023-07-02T18:33:22.126Z,99205.59
2023-07-02T18:35:51.076Z,99215.00
2023-07-02T18:38:19.915Z,99215.63
2023-07-02T18:40:48.063Z,99217.56
2023-07-02T18:43:16.174Z,99223.47
2023-07-02T18:45:52.312Z,99230.56
2023-07-02T18:48:21.546Z,99231.31
2023-07-02T18:50:50.159Z,99239.66
2023-07-02T18:53:19.838Z,99240.34
2023-07-02T18:55:58.812Z,99242.75
2023-07-02T18:58:28.417Z,99250.69
2023-07-02T19:00:56.953Z,99257.97
2023-07-02T19:03:25.033Z,99253.37
2023-07-02T19:05:53.578Z,99261.34
2023-07-02T19:08:22.507Z,99268.75
2023-07-02T19:11:01.102Z,99268.66
2023-07-02T19:13:29.658Z,99278.00
2023-07-02T19:15:57.774Z,99277.63
2023-07-02T19:18:26.936Z,99273.44
2023-07-02T19:20:59.096Z,99286.16
2023-07-02T19:23:32.269Z,99291.50
2023-07-02T19:26:00.755Z,99293.75
2023-07-02T19:28:29.150Z,99302.69
2023-07-02T19:31:02.178Z,99300.03
2023-07-02T19:33:31.090Z,99300.19
2023-07-02T19:35:59.216Z,99309.44
2023-07-02T19:38:30.592Z,99301.63
2023-07-02T19:40:59.496Z,99314.66
2023-07-02T19:43:28.228Z,99309.69
2023-07-02T19:45:58.886Z,99317.06
2023-07-02T19:48:28.030Z,99320.94
2023-07-02T19:51:05.130Z,99321.72
2023-07-02T19:53:35.383Z,99319.72
2023-07-02T19:56:07.772Z,99334.84
2023-07-02T19:58:36.660Z,99336.91
2023-07-02T20:01:11.271Z,99346.25
2023-07-02T20:03:41.762Z,99343.75
2023-07-02T20:06:10.926Z,99345.16
2023-07-02T20:08:39.540Z,99351.59
2023-07-02T20:11:07.856Z,99354.94
2023-07-02T20:13:36.780Z,99357.97
2023-07-02T20:16:05.780Z,99364.62
2023-07-02T20:18:33.799Z,99365.53
2023-07-02T20:21:04.040Z,99362.75
2023-07-02T20:23:33.504Z,99358.72
2023-07-02T20:26:01.736Z,99371.06
2023-07-02T20:28:29.968Z,99368.34
2023-07-02T20:31:03.202Z,99375.50
2023-07-02T20:33:31.408Z,99378.38
2023-07-02T20:36:02.455Z,99371.22
2023-07-02T20:38:31.618Z,99370.69
2023-07-02T20:41:03.508Z,99374.59
2023-07-02T20:43:34.718Z,99380.03
2023-07-02T20:46:05.706Z,99376.59
2023-07-02T20:48:34.837Z,99388.34
2023-07-02T20:51:04.506Z,99379.47
2023-07-02T20:53:32.656Z,99376.09
2023-07-02T20:56:00.852Z,99382.66
2023-07-02T20:58:29.440Z,99386.72
2023-07-02T21:01:02.827Z,99396.53
2023-07-02T21:03:31.641Z,99396.53
2023-07-02T21:06:04.224Z,99400.44
2023-07-02T21:08:32.913Z,99402.25
2023-07-02T21:11:04.922Z,99400.44
2023-07-02T21:13:35.905Z,99399.37
2023-07-02T21:16:07.242Z,99403.75
2023-07-02T21:18:35.682Z,99398.94
2023-07-02T21:21:03.830Z,99406.28
2023-07-02T21:23:32.775Z,99412.75
2023-07-02T21:26:03.942Z,99408.81
2023-07-02T21:28:32.554Z,99410.75
2023-07-02T21:31:01.206Z,99421.59
2023-07-02T21:33:32.209Z,99425.50
2023-07-02T21:36:09.070Z,99423.88
2023-07-02T21:38:39.010Z,99423.78
2023-07-02T21:41:09.383Z,99432.03
2023-07-02T21:43:37.720Z,99429.50
2023-07-02T21:46:08.670Z,99431.44
2023-07-02T21:48:40.222Z,99431.50
2023-07-02T21:51:08.306Z,99432.03
2023-07-02T21:53:37.507Z,99440.47
2023-07-02T21:56:06.019Z,99437.84
2023-07-02T21:58:34.191Z,99444.03
2023-07-02T22:01:02.770Z,99436.63
2023-07-02T22:03:31.380Z,99445.59
2023-07-02T22:05:59.972Z,99451.78
2023-07-02T22:08:28.113Z,99454.50
2023-07-02T22:11:05.833Z,99457.59
2023-07-02T22:13:37.486Z,99438.47
2023-07-02T22:16:05.971Z,99461.25
2023-07-02T22:18:38.065Z,99456.19
2023-07-02T22:21:07.273Z,99460.34
2023-07-02T22:23:35.773Z,99456.25
2023-07-02T22:26:04.378Z,99452.72
2023-07-02T22:28:33.052Z,99454.19
2023-07-02T22:31:03.398Z,99453.41
2023-07-02T22:33:33.750Z,99458.31
2023-07-02T22:36:02.316Z,99458.31
2023-07-02T22:38:30.453Z,99449.12
2023-07-02T22:40:58.535Z,99462.19
2023-07-02T22:43:26.946Z,99457.56
2023-07-02T22:45:55.378Z,99457.50
2023-07-02T22:48:23.670Z,99451.28
2023-07-02T22:50:52.025Z,99454.13
2023-07-02T22:53:20.050Z,99450.53
2023-07-02T22:55:48.211Z,99457.81
2023-07-02T22:58:16.713Z,99455.28
2023-07-02T23:00:44.859Z,99452.59
2023-07-02T23:03:14.288Z,99468.41
2023-07-02T23:05:42.991Z,99463.62
2023-07-02T23:08:13.153Z,99463.12
2023-07-02T23:10:41.282Z,99460.87
2023-07-02T23:13:09.808Z,99457.28
2023-07-02T23:15:37.863Z,99455.88
2023-07-02T23:18:05.915Z,99457.88
2023-07-02T23:20:37.870Z,99452.66
2023-07-02T23:23:07.107Z,99454.84
2023-07-02T23:25:35.775Z,99462.25
2023-07-02T23:28:04.356Z,99454.59
2023-07-02T23:30:35.055Z,99454.78
2023-07-02T23:33:11.039Z,99454.69
2023-07-02T23:35:39.608Z,99448.22
2023-07-02T23:38:08.446Z,99458.97
2023-07-02T23:40:37.051Z,99453.00
2023-07-02T23:43:05.777Z,99447.19
2023-07-02T23:45:34.363Z,99442.75
2023-07-02T23:48:02.472Z,99439.09
2023-07-02T23:50:30.639Z,99443.31
2023-07-02T23:52:59.068Z,99440.97
2023-07-02T23:55:27.196Z,99432.44
2023-07-02T23:57:55.436Z,99438.59
